sensor_id;sensor_type;location;lat;lon;timestamp;P1;durP1;ratioP1;P2;durP2;ratioP2
24859;SDS011;12936;52.006;4.350;2023-06-14T00:00:37;6.85;;;2.85;;
24859;SDS011;12936;52.006;4.350;2023-06-14T00:03:07;7.93;;;2.72;;
24859;SDS011;12936;52.006;4.350;2023-06-14T00:05:38;6.05;;;3.13;;
24859;SDS011;12936;52.006;4.350;2023-06-14T00:08:09;8.45;;;2.80;;
24859;SDS011;12936;52.006;4.350;2023-06-14T00:10:38;4.85;;;2.92;;
24859;SDS011;12936;52.006;4.350;2023-06-14T00:13:08;6.20;;;2.75;;
24859;SDS011;12936;52.006;4.350;2023-06-14T00:15:38;6.53;;;2.80;;
24859;SDS011;12936;52.006;4.350;2023-06-14T00:18:09;7.43;;;3.03;;
24859;SDS011;12936;52.006;4.350;2023-06-14T00:20:39;4.10;;;2.83;;
24859;SDS011;12936;52.006;4.350;2023-06-14T00:23:09;6.35;;;3.00;;
24859;SDS011;12936;52.006;4.350;2023-06-14T00:25:37;4.95;;;2.63;;
24859;SDS011;12936;52.006;4.350;2023-06-14T00:28:05;5.75;;;2.75;;
24859;SDS011;12936;52.006;4.350;2023-06-14T00:30:34;6.40;;;3.00;;
24859;SDS011;12936;52.006;4.350;2023-06-14T00:33:06;8.75;;;3.10;;
24859;SDS011;12936;52.006;4.350;2023-06-14T00:35:35;5.63;;;2.92;;
24859;SDS011;12936;52.006;4.350;2023-06-14T00:38:18;4.57;;;3.15;;
24859;SDS011;12936;52.006;4.350;2023-06-14T00:40:47;6.20;;;2.78;;
24859;SDS011;12936;52.006;4.350;2023-06-14T00:43:15;6.53;;;3.25;;
24859;SDS011;12936;52.006;4.350;2023-06-14T00:45:43;7.78;;;3.10;;
24859;SDS011;12936;52.006;4.350;2023-06-14T00:48:12;6.10;;;3.30;;
24859;SDS011;12936;52.006;4.350;2023-06-14T00:50:41;5.15;;;2.70;;
24859;SDS011;12936;52.006;4.350;2023-06-14T00:53:14;7.82;;;3.08;;
24859;SDS011;12936;52.006;4.350;2023-06-14T00:55:44;8.07;;;3.10;;
24859;SDS011;12936;52.006;4.350;2023-06-14T00:58:12;6.13;;;2.90;;
24859;SDS011;12936;52.006;4.350;2023-06-14T01:00:41;10.63;;;4.13;;
24859;SDS011;12936;52.006;4.350;2023-06-14T01:03:10;6.13;;;3.10;;
24859;SDS011;12936;52.006;4.350;2023-06-14T01:05:39;8.80;;;3.00;;
24859;SDS011;12936;52.006;4.350;2023-06-14T01:08:13;4.05;;;2.80;;
24859;SDS011;12936;52.006;4.350;2023-06-14T01:10:51;10.27;;;3.17;;
24859;SDS011;12936;52.006;4.350;2023-06-14T01:13:23;4.60;;;2.72;;
24859;SDS011;12936;52.006;4.350;2023-06-14T01:15:56;6.82;;;2.92;;
24859;SDS011;12936;52.006;4.350;2023-06-14T01:18:25;7.07;;;2.95;;
24859;SDS011;12936;52.006;4.350;2023-06-14T01:20:56;8.43;;;3.20;;
24859;SDS011;12936;52.006;4.350;2023-06-14T01:23:27;7.22;;;3.10;;
24859;SDS011;12936;52.006;4.350;2023-06-14T01:25:59;4.15;;;2.75;;
24859;SDS011;12936;52.006;4.350;2023-06-14T01:28:30;8.02;;;3.45;;
24859;SDS011;12936;52.006;4.350;2023-06-14T01:31:01;5.38;;;2.85;;
24859;SDS011;12936;52.006;4.350;2023-06-14T01:33:32;5.10;;;2.65;;
24859;SDS011;12936;52.006;4.350;2023-06-14T01:36:03;5.40;;;2.90;;
24859;SDS011;12936;52.006;4.350;2023-06-14T01:38:35;5.53;;;3.00;;
24859;SDS011;12936;52.006;4.350;2023-06-14T01:41:04;5.22;;;2.90;;
24859;SDS011;12936;52.006;4.350;2023-06-14T01:43:33;8.20;;;3.13;;
24859;SDS011;12936;52.006;4.350;2023-06-14T01:46:02;8.13;;;3.17;;
24859;SDS011;12936;52.006;4.350;2023-06-14T01:48:33;6.60;;;2.88;;
24859;SDS011;12936;52.006;4.350;2023-06-14T01:51:02;7.43;;;2.90;;
24859;SDS011;12936;52.006;4.350;2023-06-14T01:53:30;6.78;;;3.10;;
24859;SDS011;12936;52.006;4.350;2023-06-14T01:56:00;4.25;;;2.83;;
24859;SDS011;12936;52.006;4.350;2023-06-14T01:58:29;9.73;;;3.00;;
24859;SDS011;12936;52.006;4.350;2023-06-14T02:00:58;6.50;;;3.15;;
24859;SDS011;12936;52.006;4.350;2023-06-14T02:03:27;3.88;;;2.70;;
24859;SDS011;12936;52.006;4.350;2023-06-14T02:05:58;9.43;;;2.85;;
24859;SDS011;12936;52.006;4.350;2023-06-14T02:08:27;4.63;;;3.03;;
24859;SDS011;12936;52.006;4.350;2023-06-14T02:10:55;8.13;;;2.97;;
24859;SDS011;12936;52.006;4.350;2023-06-14T02:13:25;4.28;;;3.03;;
24859;SDS011;12936;52.006;4.350;2023-06-14T02:15:53;7.72;;;2.90;;
24859;SDS011;12936;52.006;4.350;2023-06-14T02:18:21;7.38;;;2.70;;
24859;SDS011;12936;52.006;4.350;2023-06-14T02:20:51;10.52;;;2.83;;
24859;SDS011;12936;52.006;4.350;2023-06-14T02:23:20;12.38;;;3.13;;
24859;SDS011;12936;52.006;4.350;2023-06-14T02:25:48;5.90;;;2.80;;
24859;SDS011;12936;52.006;4.350;2023-06-14T02:28:17;6.20;;;2.97;;
24859;SDS011;12936;52.006;4.350;2023-06-14T02:30:47;6.22;;;2.75;;
24859;SDS011;12936;52.006;4.350;2023-06-14T02:33:15;7.35;;;2.85;;
24859;SDS011;12936;52.006;4.350;2023-06-14T02:35:45;7.90;;;3.28;;
24859;SDS011;12936;52.006;4.350;2023-06-14T02:38:13;7.97;;;2.80;;
24859;SDS011;12936;52.006;4.350;2023-06-14T02:40:42;6.75;;;2.67;;
24859;SDS011;12936;52.006;4.350;2023-06-14T02:43:11;9.02;;;3.13;;
24859;SDS011;12936;52.006;4.350;2023-06-14T02:45:39;5.63;;;3.10;;
24859;SDS011;12936;52.006;4.350;2023-06-14T02:48:09;6.68;;;2.85;;
24859;SDS011;12936;52.006;4.350;2023-06-14T02:50:38;6.65;;;2.90;;
24859;SDS011;12936;52.006;4.350;2023-06-14T02:53:06;9.07;;;3.95;;
24859;SDS011;12936;52.006;4.350;2023-06-14T02:55:34;8.50;;;2.55;;
24859;SDS011;12936;52.006;4.350;2023-06-14T02:58:06;7.80;;;3.00;;
24859;SDS011;12936;52.006;4.350;2023-06-14T03:00:35;7.93;;;3.15;;
24859;SDS011;12936;52.006;4.350;2023-06-14T03:03:05;5.00;;;3.08;;
24859;SDS011;12936;52.006;4.350;2023-06-14T03:05:44;10.75;;;3.20;;
24859;SDS011;12936;52.006;4.350;2023-06-14T03:08:16;7.28;;;3.55;;
24859;SDS011;12936;52.006;4.350;2023-06-14T03:10:46;6.55;;;2.83;;
24859;SDS011;12936;52.006;4.350;2023-06-14T03:13:15;5.68;;;3.25;;
24859;SDS011;12936;52.006;4.350;2023-06-14T03:15:45;6.13;;;2.63;;
24859;SDS011;12936;52.006;4.350;2023-06-14T03:18:16;5.47;;;2.53;;
24859;SDS011;12936;52.006;4.350;2023-06-14T03:20:46;5.00;;;2.83;;
24859;SDS011;12936;52.006;4.350;2023-06-14T03:23:15;8.35;;;3.25;;
24859;SDS011;12936;52.006;4.350;2023-06-14T03:25:44;6.55;;;2.80;;
24859;SDS011;12936;52.006;4.350;2023-06-14T03:28:12;4.72;;;2.70;;
24859;SDS011;12936;52.006;4.350;2023-06-14T03:30:42;3.80;;;2.80;;
24859;SDS011;12936;52.006;4.350;2023-06-14T03:33:11;6.93;;;3.15;;
24859;SDS011;12936;52.006;4.350;2023-06-14T03:35:40;11.95;;;3.30;;
24859;SDS011;12936;52.006;4.350;2023-06-14T03:38:11;10.80;;;2.90;;
24859;SDS011;12936;52.006;4.350;2023-06-14T03:40:41;8.23;;;3.00;;
24859;SDS011;12936;52.006;4.350;2023-06-14T03:43:11;7.85;;;2.80;;
24859;SDS011;12936;52.006;4.350;2023-06-14T03:45:39;5.28;;;3.13;;
24859;SDS011;12936;52.006;4.350;2023-06-14T03:48:09;10.80;;;3.28;;
24859;SDS011;12936;52.006;4.350;2023-06-14T03:50:38;10.52;;;3.40;;
24859;SDS011;12936;52.006;4.350;2023-06-14T03:53:06;7.30;;;3.15;;
24859;SDS011;12936;52.006;4.350;2023-06-14T03:55:38;8.38;;;3.08;;
24859;SDS011;12936;52.006;4.350;2023-06-14T03:58:10;5.78;;;3.28;;
24859;SDS011;12936;52.006;4.350;2023-06-14T04:00:39;7.30;;;2.50;;
24859;SDS011;12936;52.006;4.350;2023-06-14T04:03:08;9.05;;;3.17;;
24859;SDS011;12936;52.006;4.350;2023-06-14T04:05:37;8.88;;;3.20;;
24859;SDS011;12936;52.006;4.350;2023-06-14T04:08:08;6.20;;;2.60;;
24859;SDS011;12936;52.006;4.350;2023-06-14T04:10:38;4.35;;;3.00;;
24859;SDS011;12936;52.006;4.350;2023-06-14T04:13:06;7.63;;;2.95;;
24859;SDS011;12936;52.006;4.350;2023-06-14T04:15:38;11.27;;;3.22;;
24859;SDS011;12936;52.006;4.350;2023-06-14T04:18:08;6.78;;;2.88;;
24859;SDS011;12936;52.006;4.350;2023-06-14T04:20:36;5.72;;;2.78;;
24859;SDS011;12936;52.006;4.350;2023-06-14T04:23:11;8.20;;;3.15;;
24859;SDS011;12936;52.006;4.350;2023-06-14T04:25:42;6.63;;;2.90;;
24859;SDS011;12936;52.006;4.350;2023-06-14T04:28:13;6.70;;;2.88;;
24859;SDS011;12936;52.006;4.350;2023-06-14T04:30:42;5.88;;;3.25;;
24859;SDS011;12936;52.006;4.350;2023-06-14T04:33:12;5.60;;;2.90;;
24859;SDS011;12936;52.006;4.350;2023-06-14T04:35:43;6.07;;;3.05;;
24859;SDS011;12936;52.006;4.350;2023-06-14T04:38:14;3.97;;;2.67;;
24859;SDS011;12936;52.006;4.350;2023-06-14T04:40:44;7.85;;;2.80;;
24859;SDS011;12936;52.006;4.350;2023-06-14T04:43:12;4.90;;;2.70;;
24859;SDS011;12936;52.006;4.350;2023-06-14T04:45:43;9.07;;;3.10;;
24859;SDS011;12936;52.006;4.350;2023-06-14T04:48:13;6.57;;;2.60;;
24859;SDS011;12936;52.006;4.350;2023-06-14T04:50:41;10.70;;;2.88;;
24859;SDS011;12936;52.006;4.350;2023-06-14T04:53:10;7.57;;;3.65;;
24859;SDS011;12936;52.006;4.350;2023-06-14T04:55:38;7.90;;;2.90;;
24859;SDS011;12936;52.006;4.350;2023-06-14T04:58:07;6.68;;;2.67;;
24859;SDS011;12936;52.006;4.350;2023-06-14T05:00:39;11.60;;;3.05;;
24859;SDS011;12936;52.006;4.350;2023-06-14T05:03:10;6.30;;;2.63;;
24859;SDS011;12936;52.006;4.350;2023-06-14T05:05:40;4.45;;;2.70;;
24859;SDS011;12936;52.006;4.350;2023-06-14T05:08:08;7.55;;;3.20;;
24859;SDS011;12936;52.006;4.350;2023-06-14T05:10:36;6.88;;;2.75;;
24859;SDS011;12936;52.006;4.350;2023-06-14T05:13:04;4.95;;;2.70;;
24859;SDS011;12936;52.006;4.350;2023-06-14T05:15:34;6.53;;;2.78;;
24859;SDS011;12936;52.006;4.350;2023-06-14T05:18:02;5.70;;;2.70;;
24859;SDS011;12936;52.006;4.350;2023-06-14T05:20:31;9.98;;;2.72;;
24859;SDS011;12936;52.006;4.350;2023-06-14T05:22:59;7.47;;;3.20;;
24859;SDS011;12936;52.006;4.350;2023-06-14T05:25:27;8.55;;;2.70;;
24859;SDS011;12936;52.006;4.350;2023-06-14T05:27:56;8.05;;;2.47;;
24859;SDS011;12936;52.006;4.350;2023-06-14T05:30:24;9.02;;;2.85;;
24859;SDS011;12936;52.006;4.350;2023-06-14T05:32:54;11.80;;;2.88;;
24859;SDS011;12936;52.006;4.350;2023-06-14T05:35:23;6.43;;;2.58;;
24859;SDS011;12936;52.006;4.350;2023-06-14T05:37:53;9.07;;;3.10;;
24859;SDS011;12936;52.006;4.350;2023-06-14T05:40:21;6.15;;;2.25;;
24859;SDS011;12936;52.006;4.350;2023-06-14T05:42:49;7.47;;;2.90;;
24859;SDS011;12936;52.006;4.350;2023-06-14T05:45:18;8.65;;;2.75;;
24859;SDS011;12936;52.006;4.350;2023-06-14T05:47:46;12.10;;;2.85;;
24859;SDS011;12936;52.006;4.350;2023-06-14T05:50:15;31.55;;;3.95;;
24859;SDS011;12936;52.006;4.350;2023-06-14T05:52:43;8.23;;;3.10;;
24859;SDS011;12936;52.006;4.350;2023-06-14T05:55:12;9.60;;;2.88;;
24859;SDS011;12936;52.006;4.350;2023-06-14T05:57:41;8.95;;;2.80;;
24859;SDS011;12936;52.006;4.350;2023-06-14T06:00:09;15.00;;;4.07;;
24859;SDS011;12936;52.006;4.350;2023-06-14T06:02:44;8.32;;;2.67;;
24859;SDS011;12936;52.006;4.350;2023-06-14T06:05:15;9.20;;;2.63;;
24859;SDS011;12936;52.006;4.350;2023-06-14T06:07:44;7.53;;;2.90;;
24859;SDS011;12936;52.006;4.350;2023-06-14T06:10:12;17.48;;;3.63;;
24859;SDS011;12936;52.006;4.350;2023-06-14T06:12:40;6.07;;;3.00;;
24859;SDS011;12936;52.006;4.350;2023-06-14T06:15:09;11.63;;;2.80;;
24859;SDS011;12936;52.006;4.350;2023-06-14T06:17:39;6.93;;;2.70;;
24859;SDS011;12936;52.006;4.350;2023-06-14T06:20:23;7.75;;;2.80;;
24859;SDS011;12936;52.006;4.350;2023-06-14T06:22:55;8.82;;;2.78;;
24859;SDS011;12936;52.006;4.350;2023-06-14T06:25:24;6.65;;;2.70;;
24859;SDS011;12936;52.006;4.350;2023-06-14T06:27:54;6.10;;;2.53;;
24859;SDS011;12936;52.006;4.350;2023-06-14T06:30:23;5.38;;;2.70;;
24859;SDS011;12936;52.006;4.350;2023-06-14T06:32:52;16.88;;;3.00;;
24859;SDS011;12936;52.006;4.350;2023-06-14T06:35:23;7.10;;;2.78;;
24859;SDS011;12936;52.006;4.350;2023-06-14T06:37:53;8.93;;;2.70;;
24859;SDS011;12936;52.006;4.350;2023-06-14T06:40:22;6.35;;;2.70;;
24859;SDS011;12936;52.006;4.350;2023-06-14T06:42:50;9.63;;;3.40;;
24859;SDS011;12936;52.006;4.350;2023-06-14T06:45:19;14.68;;;3.33;;
24859;SDS011;12936;52.006;4.350;2023-06-14T06:47:51;9.15;;;2.80;;
24859;SDS011;12936;52.006;4.350;2023-06-14T06:50:19;11.35;;;2.90;;
24859;SDS011;12936;52.006;4.350;2023-06-14T06:52:50;9.43;;;3.30;;
24859;SDS011;12936;52.006;4.350;2023-06-14T06:55:19;8.38;;;2.83;;
24859;SDS011;12936;52.006;4.350;2023-06-14T06:57:47;8.85;;;2.80;;
24859;SDS011;12936;52.006;4.350;2023-06-14T07:00:19;7.35;;;3.28;;
24859;SDS011;12936;52.006;4.350;2023-06-14T07:02:47;9.82;;;2.97;;
24859;SDS011;12936;52.006;4.350;2023-06-14T07:05:16;8.07;;;2.75;;
24859;SDS011;12936;52.006;4.350;2023-06-14T07:07:44;6.15;;;2.90;;
24859;SDS011;12936;52.006;4.350;2023-06-14T07:10:14;10.75;;;3.33;;
24859;SDS011;12936;52.006;4.350;2023-06-14T07:12:42;10.13;;;3.42;;
24859;SDS011;12936;52.006;4.350;2023-06-14T07:15:11;5.60;;;3.00;;
24859;SDS011;12936;52.006;4.350;2023-06-14T07:17:58;10.07;;;3.20;;
24859;SDS011;12936;52.006;4.350;2023-06-14T07:20:26;8.43;;;3.20;;
24859;SDS011;12936;52.006;4.350;2023-06-14T07:22:55;7.22;;;3.20;;
24859;SDS011;12936;52.006;4.350;2023-06-14T07:25:24;8.45;;;3.45;;
24859;SDS011;12936;52.006;4.350;2023-06-14T07:27:52;9.38;;;3.22;;
24859;SDS011;12936;52.006;4.350;2023-06-14T07:30:21;11.90;;;3.38;;
24859;SDS011;12936;52.006;4.350;2023-06-14T07:32:52;7.38;;;3.30;;
24859;SDS011;12936;52.006;4.350;2023-06-14T07:35:21;5.57;;;3.60;;
24859;SDS011;12936;52.006;4.350;2023-06-14T07:37:49;4.80;;;3.20;;
24859;SDS011;12936;52.006;4.350;2023-06-14T07:40:17;9.25;;;3.20;;
24859;SDS011;12936;52.006;4.350;2023-06-14T07:42:46;6.20;;;3.00;;
24859;SDS011;12936;52.006;4.350;2023-06-14T07:45:17;31.63;;;4.57;;
24859;SDS011;12936;52.006;4.350;2023-06-14T07:47:46;4.47;;;3.00;;
24859;SDS011;12936;52.006;4.350;2023-06-14T07:50:14;11.95;;;3.30;;
24859;SDS011;12936;52.006;4.350;2023-06-14T07:52:43;8.63;;;3.88;;
24859;SDS011;12936;52.006;4.350;2023-06-14T07:55:15;16.83;;;3.88;;
24859;SDS011;12936;52.006;4.350;2023-06-14T07:57:44;6.55;;;3.67;;
24859;SDS011;12936;52.006;4.350;2023-06-14T08:00:14;8.07;;;3.47;;
24859;SDS011;12936;52.006;4.350;2023-06-14T08:02:44;7.40;;;3.70;;
24859;SDS011;12936;52.006;4.350;2023-06-14T08:05:13;9.27;;;3.17;;
24859;SDS011;12936;52.006;4.350;2023-06-14T08:07:41;13.25;;;3.70;;
24859;SDS011;12936;52.006;4.350;2023-06-14T08:10:09;17.30;;;3.85;;
24859;SDS011;12936;52.006;4.350;2023-06-14T08:12:38;11.55;;;3.67;;
24859;SDS011;12936;52.006;4.350;2023-06-14T08:15:08;10.10;;;3.70;;
24859;SDS011;12936;52.006;4.350;2023-06-14T08:17:41;8.35;;;3.63;;
24859;SDS011;12936;52.006;4.350;2023-06-14T08:20:10;11.05;;;3.70;;
24859;SDS011;12936;52.006;4.350;2023-06-14T08:22:39;4.15;;;3.10;;
24859;SDS011;12936;52.006;4.350;2023-06-14T08:25:08;6.53;;;3.25;;
24859;SDS011;12936;52.006;4.350;2023-06-14T08:27:37;25.15;;;4.65;;
24859;SDS011;12936;52.006;4.350;2023-06-14T08:30:06;5.25;;;3.10;;
24859;SDS011;12936;52.006;4.350;2023-06-14T08:32:35;13.98;;;3.30;;
24859;SDS011;12936;52.006;4.350;2023-06-14T08:35:05;7.22;;;3.22;;
24859;SDS011;12936;52.006;4.350;2023-06-14T08:37:38;11.73;;;3.33;;
24859;SDS011;12936;52.006;4.350;2023-06-14T08:40:12;6.50;;;3.50;;
24859;SDS011;12936;52.006;4.350;2023-06-14T08:42:47;8.90;;;3.20;;
24859;SDS011;12936;52.006;4.350;2023-06-14T08:45:19;14.63;;;4.03;;
24859;SDS011;12936;52.006;4.350;2023-06-14T08:47:52;14.43;;;4.50;;
24859;SDS011;12936;52.006;4.350;2023-06-14T08:50:26;16.38;;;3.38;;
24859;SDS011;12936;52.006;4.350;2023-06-14T08:52:57;8.90;;;3.42;;
24859;SDS011;12936;52.006;4.350;2023-06-14T08:55:30;6.22;;;3.58;;
24859;SDS011;12936;52.006;4.350;2023-06-14T08:58:03;8.68;;;2.78;;
24859;SDS011;12936;52.006;4.350;2023-06-14T09:00:32;18.90;;;3.25;;
24859;SDS011;12936;52.006;4.350;2023-06-14T09:03:01;5.25;;;2.95;;
24859;SDS011;12936;52.006;4.350;2023-06-14T09:05:31;8.02;;;3.08;;
24859;SDS011;12936;52.006;4.350;2023-06-14T09:07:59;10.35;;;3.60;;
24859;SDS011;12936;52.006;4.350;2023-06-14T09:10:32;9.68;;;3.35;;
24859;SDS011;12936;52.006;4.350;2023-06-14T09:13:01;8.98;;;3.40;;
24859;SDS011;12936;52.006;4.350;2023-06-14T09:15:30;7.07;;;2.92;;
24859;SDS011;12936;52.006;4.350;2023-06-14T09:17:58;12.20;;;3.33;;
24859;SDS011;12936;52.006;4.350;2023-06-14T09:20:29;8.38;;;3.20;;
24859;SDS011;12936;52.006;4.350;2023-06-14T09:22:59;5.40;;;3.58;;
24859;SDS011;12936;52.006;4.350;2023-06-14T09:25:31;7.03;;;3.10;;
24859;SDS011;12936;52.006;4.350;2023-06-14T09:28:06;8.15;;;3.50;;
24859;SDS011;12936;52.006;4.350;2023-06-14T09:30:35;4.43;;;3.05;;
24859;SDS011;12936;52.006;4.350;2023-06-14T09:33:04;6.28;;;2.58;;
24859;SDS011;12936;52.006;4.350;2023-06-14T09:35:34;4.75;;;2.70;;
24859;SDS011;12936;52.006;4.350;2023-06-14T09:38:03;4.90;;;2.80;;
24859;SDS011;12936;52.006;4.350;2023-06-14T09:40:33;9.55;;;3.40;;
24859;SDS011;12936;52.006;4.350;2023-06-14T09:43:04;4.78;;;2.63;;
24859;SDS011;12936;52.006;4.350;2023-06-14T09:45:34;5.80;;;2.63;;
24859;SDS011;12936;52.006;4.350;2023-06-14T09:48:03;5.80;;;2.47;;
24859;SDS011;12936;52.006;4.350;2023-06-14T09:50:35;5.63;;;2.78;;
24859;SDS011;12936;52.006;4.350;2023-06-14T09:53:05;7.43;;;2.88;;
24859;SDS011;12936;52.006;4.350;2023-06-14T09:55:35;8.07;;;2.55;;
24859;SDS011;12936;52.006;4.350;2023-06-14T09:58:05;7.88;;;2.58;;
24859;SDS011;12936;52.006;4.350;2023-06-14T10:00:35;8.93;;;3.00;;
24859;SDS011;12936;52.006;4.350;2023-06-14T10:03:06;11.02;;;2.53;;
24859;SDS011;12936;52.006;4.350;2023-06-14T10:08:14;7.40;;;2.40;;
24859;SDS011;12936;52.006;4.350;2023-06-14T10:10:45;6.65;;;2.30;;
24859;SDS011;12936;52.006;4.350;2023-06-14T10:13:14;5.03;;;2.35;;
24859;SDS011;12936;52.006;4.350;2023-06-14T10:15:45;10.98;;;2.22;;
24859;SDS011;12936;52.006;4.350;2023-06-14T10:18:23;4.43;;;1.85;;
24859;SDS011;12936;52.006;4.350;2023-06-14T10:21:00;5.53;;;2.67;;
24859;SDS011;12936;52.006;4.350;2023-06-14T10:23:36;7.70;;;2.47;;
24859;SDS011;12936;52.006;4.350;2023-06-14T10:26:13;7.07;;;2.42;;
24859;SDS011;12936;52.006;4.350;2023-06-14T10:28:55;3.08;;;2.10;;
24859;SDS011;12936;52.006;4.350;2023-06-14T10:31:41;5.13;;;2.60;;
24859;SDS011;12936;52.006;4.350;2023-06-14T10:34:10;4.60;;;2.13;;
24859;SDS011;12936;52.006;4.350;2023-06-14T10:36:41;8.98;;;2.40;;
24859;SDS011;12936;52.006;4.350;2023-06-14T10:39:13;8.80;;;2.13;;
24859;SDS011;12936;52.006;4.350;2023-06-14T10:41:50;3.22;;;2.03;;
24859;SDS011;12936;52.006;4.350;2023-06-14T10:44:38;6.43;;;1.88;;
24859;SDS011;12936;52.006;4.350;2023-06-14T10:47:20;9.63;;;2.45;;
24859;SDS011;12936;52.006;4.350;2023-06-14T10:49:57;7.50;;;2.42;;
24859;SDS011;12936;52.006;4.350;2023-06-14T10:52:34;4.93;;;2.15;;
24859;SDS011;12936;52.006;4.350;2023-06-14T10:55:06;5.50;;;2.03;;
24859;SDS011;12936;52.006;4.350;2023-06-14T10:57:42;5.68;;;2.25;;
24859;SDS011;12936;52.006;4.350;2023-06-14T11:00:15;4.38;;;1.70;;
24859;SDS011;12936;52.006;4.350;2023-06-14T11:06:00;2.83;;;2.03;;
24859;SDS011;12936;52.006;4.350;2023-06-14T11:08:45;4.88;;;1.98;;
24859;SDS011;12936;52.006;4.350;2023-06-14T11:11:38;8.60;;;2.92;;
24859;SDS011;12936;52.006;4.350;2023-06-14T11:14:09;3.00;;;1.85;;
24859;SDS011;12936;52.006;4.350;2023-06-14T11:16:38;2.97;;;1.70;;
24859;SDS011;12936;52.006;4.350;2023-06-14T11:19:06;9.98;;;2.00;;
24859;SDS011;12936;52.006;4.350;2023-06-14T11:21:34;2.70;;;1.92;;
24859;SDS011;12936;52.006;4.350;2023-06-14T11:24:11;6.32;;;1.70;;
24859;SDS011;12936;52.006;4.350;2023-06-14T11:26:40;3.20;;;2.08;;
24859;SDS011;12936;52.006;4.350;2023-06-14T11:29:08;7.30;;;1.73;;
24859;SDS011;12936;52.006;4.350;2023-06-14T11:31:36;2.90;;;1.73;;
24859;SDS011;12936;52.006;4.350;2023-06-14T11:34:05;5.53;;;1.90;;
24859;SDS011;12936;52.006;4.350;2023-06-14T11:36:33;6.97;;;2.10;;
24859;SDS011;12936;52.006;4.350;2023-06-14T11:39:02;5.00;;;1.90;;
24859;SDS011;12936;52.006;4.350;2023-06-14T11:41:35;7.85;;;1.88;;
24859;SDS011;12936;52.006;4.350;2023-06-14T11:44:04;8.38;;;2.05;;
24859;SDS011;12936;52.006;4.350;2023-06-14T11:46:33;4.93;;;1.80;;
24859;SDS011;12936;52.006;4.350;2023-06-14T11:49:02;7.05;;;1.85;;
24859;SDS011;12936;52.006;4.350;2023-06-14T11:51:33;3.75;;;1.60;;
24859;SDS011;12936;52.006;4.350;2023-06-14T11:54:02;4.60;;;1.90;;
24859;SDS011;12936;52.006;4.350;2023-06-14T11:56:31;4.32;;;1.60;;
24859;SDS011;12936;52.006;4.350;2023-06-14T11:59:02;3.25;;;1.80;;
24859;SDS011;12936;52.006;4.350;2023-06-14T12:01:35;2.72;;;1.38;;
24859;SDS011;12936;52.006;4.350;2023-06-14T12:04:05;2.95;;;1.60;;
24859;SDS011;12936;52.006;4.350;2023-06-14T12:06:34;3.53;;;1.67;;
24859;SDS011;12936;52.006;4.350;2023-06-14T12:09:06;3.03;;;1.48;;
24859;SDS011;12936;52.006;4.350;2023-06-14T12:11:40;2.80;;;1.80;;
24859;SDS011;12936;52.006;4.350;2023-06-14T12:14:09;2.33;;;1.58;;
24859;SDS011;12936;52.006;4.350;2023-06-14T12:16:40;2.42;;;1.50;;
24859;SDS011;12936;52.006;4.350;2023-06-14T12:19:11;3.10;;;1.60;;
24859;SDS011;12936;52.006;4.350;2023-06-14T12:21:40;3.45;;;1.38;;
24859;SDS011;12936;52.006;4.350;2023-06-14T12:24:09;4.57;;;1.63;;
24859;SDS011;12936;52.006;4.350;2023-06-14T12:26:40;3.30;;;1.50;;
24859;SDS011;12936;52.006;4.350;2023-06-14T12:29:10;2.85;;;1.65;;
24859;SDS011;12936;52.006;4.350;2023-06-14T12:31:39;3.78;;;1.60;;
24859;SDS011;12936;52.006;4.350;2023-06-14T12:34:08;1.90;;;1.40;;
24859;SDS011;12936;52.006;4.350;2023-06-14T12:36:37;5.03;;;1.60;;
24859;SDS011;12936;52.006;4.350;2023-06-14T12:39:10;4.60;;;1.75;;
24859;SDS011;12936;52.006;4.350;2023-06-14T12:41:38;2.90;;;1.50;;
24859;SDS011;12936;52.006;4.350;2023-06-14T12:44:09;1.98;;;1.33;;
24859;SDS011;12936;52.006;4.350;2023-06-14T12:46:38;4.47;;;1.90;;
24859;SDS011;12936;52.006;4.350;2023-06-14T12:49:08;3.28;;;1.38;;
24859;SDS011;12936;52.006;4.350;2023-06-14T12:51:37;1.70;;;1.40;;
24859;SDS011;12936;52.006;4.350;2023-06-14T12:54:06;2.95;;;1.42;;
24859;SDS011;12936;52.006;4.350;2023-06-14T12:56:34;3.78;;;1.67;;
24859;SDS011;12936;52.006;4.350;2023-06-14T12:59:03;3.25;;;1.58;;
24859;SDS011;12936;52.006;4.350;2023-06-14T13:01:34;2.35;;;1.50;;
24859;SDS011;12936;52.006;4.350;2023-06-14T13:04:02;3.08;;;1.40;;
24859;SDS011;12936;52.006;4.350;2023-06-14T13:06:30;3.25;;;1.52;;
24859;SDS011;12936;52.006;4.350;2023-06-14T13:08:59;3.67;;;1.40;;
24859;SDS011;12936;52.006;4.350;2023-06-14T13:11:30;7.75;;;1.58;;
24859;SDS011;12936;52.006;4.350;2023-06-14T13:13:58;2.97;;;1.65;;
24859;SDS011;12936;52.006;4.350;2023-06-14T13:16:44;3.75;;;1.63;;
24859;SDS011;12936;52.006;4.350;2023-06-14T13:19:13;2.63;;;1.58;;
24859;SDS011;12936;52.006;4.350;2023-06-14T13:21:42;2.88;;;1.70;;
24859;SDS011;12936;52.006;4.350;2023-06-14T13:24:11;2.25;;;1.50;;
24859;SDS011;12936;52.006;4.350;2023-06-14T13:26:39;3.33;;;1.45;;
24859;SDS011;12936;52.006;4.350;2023-06-14T13:29:08;4.05;;;1.45;;
24859;SDS011;12936;52.006;4.350;2023-06-14T13:31:37;3.00;;;1.50;;
24859;SDS011;12936;52.006;4.350;2023-06-14T13:34:07;1.92;;;1.42;;
24859;SDS011;12936;52.006;4.350;2023-06-14T13:36:35;2.70;;;1.55;;
24859;SDS011;12936;52.006;4.350;2023-06-14T13:39:03;3.30;;;1.45;;
24859;SDS011;12936;52.006;4.350;2023-06-14T13:41:31;2.63;;;1.38;;
24859;SDS011;12936;52.006;4.350;2023-06-14T13:44:01;6.28;;;1.58;;
24859;SDS011;12936;52.006;4.350;2023-06-14T13:46:31;4.65;;;1.55;;
24859;SDS011;12936;52.006;4.350;2023-06-14T13:48:59;2.13;;;1.30;;
24859;SDS011;12936;52.006;4.350;2023-06-14T13:51:29;2.75;;;1.52;;
24859;SDS011;12936;52.006;4.350;2023-06-14T13:53:58;4.40;;;1.67;;
24859;SDS011;12936;52.006;4.350;2023-06-14T13:56:29;3.25;;;1.63;;
24859;SDS011;12936;52.006;4.350;2023-06-14T13:58:58;3.80;;;1.52;;
24859;SDS011;12936;52.006;4.350;2023-06-14T14:01:27;2.42;;;1.65;;
24859;SDS011;12936;52.006;4.350;2023-06-14T14:03:56;5.95;;;1.77;;
24859;SDS011;12936;52.006;4.350;2023-06-14T14:06:25;6.13;;;1.77;;
24859;SDS011;12936;52.006;4.350;2023-06-14T14:08:55;2.38;;;1.40;;
24859;SDS011;12936;52.006;4.350;2023-06-14T14:11:23;4.05;;;1.73;;
24859;SDS011;12936;52.006;4.350;2023-06-14T14:13:51;3.70;;;2.05;;
24859;SDS011;12936;52.006;4.350;2023-06-14T14:16:19;3.60;;;1.50;;
24859;SDS011;12936;52.006;4.350;2023-06-14T14:18:47;2.00;;;1.48;;
24859;SDS011;12936;52.006;4.350;2023-06-14T14:21:16;3.90;;;1.50;;
24859;SDS011;12936;52.006;4.350;2023-06-14T14:23:44;6.03;;;1.77;;
24859;SDS011;12936;52.006;4.350;2023-06-14T14:26:14;3.63;;;1.35;;
24859;SDS011;12936;52.006;4.350;2023-06-14T14:28:42;1.95;;;1.42;;
24859;SDS011;12936;52.006;4.350;2023-06-14T14:31:10;4.38;;;1.58;;
24859;SDS011;12936;52.006;4.350;2023-06-14T14:33:39;1.88;;;1.48;;
24859;SDS011;12936;52.006;4.350;2023-06-14T14:36:07;4.78;;;1.40;;
24859;SDS011;12936;52.006;4.350;2023-06-14T14:38:35;5.32;;;1.55;;
24859;SDS011;12936;52.006;4.350;2023-06-14T14:41:03;7.55;;;1.80;;
24859;SDS011;12936;52.006;4.350;2023-06-14T14:43:34;5.88;;;1.52;;
24859;SDS011;12936;52.006;4.350;2023-06-14T14:46:02;1.65;;;1.52;;
24859;SDS011;12936;52.006;4.350;2023-06-14T14:48:31;1.55;;;1.30;;
24859;SDS011;12936;52.006;4.350;2023-06-14T14:50:59;6.72;;;1.70;;
24859;SDS011;12936;52.006;4.350;2023-06-14T14:53:27;2.25;;;1.25;;
24859;SDS011;12936;52.006;4.350;2023-06-14T14:55:55;4.50;;;1.63;;
24859;SDS011;12936;52.006;4.350;2023-06-14T14:58:23;1.60;;;1.50;;
24859;SDS011;12936;52.006;4.350;2023-06-14T15:00:55;4.03;;;1.38;;
24859;SDS011;12936;52.006;4.350;2023-06-14T15:03:24;2.10;;;1.40;;
24859;SDS011;12936;52.006;4.350;2023-06-14T15:05:52;5.28;;;1.83;;
24859;SDS011;12936;52.006;4.350;2023-06-14T15:08:20;3.25;;;1.48;;